AFR706 LFPG-DIAP
Flight info
| Callsign | AFR706 |
|---|---|
| Flight time | 6h 29m |
| Altitude | 39000 |
| Route | AGOPA DCT ARKIP DCT ARMAL DCT ARTAX DCT BEBIX DCT LMG DCT UVELI DCT OSMOB DCT VAVIX DCT NETUK DCT PPN DCT NOLSA DCT ALEPO DCT VASUM N10 CJN L27 BLN DCT MGA DCT PIMOS DCT GALTO UN869 MABAP DCT BULIS/N0484F400 UM372 TAMUL/N0483F410 UG851 BKY DCT DEGAS DCT LITED LITED1S |
| Aircraft | A359/H-SDE2E3GHIJ3J4J5LM1ORWXY/LB1D1 |
Departure
| Time | 2026-05-04 09:37 |
|---|---|
| Airport | Charles de Gaulle International Airport (LFPG) |
Arrival
| Time | 2026-05-04 16:06 |
|---|---|
| Airport | Félix-Houphouët-Boigny International Airport (DIAP) |
| Time | Latitude | Longitude | Altitude | Speed | Heading |
|---|---|---|---|---|---|
| 2026-05-04 09:20 | 49.00153 | 2.57923 | 360 ft | 0 kts | 355° |
| 2026-05-04 09:25 | 49.00122 | 2.57926 | 364 ft | 4 kts | 358° |
| 2026-05-04 09:25 | 49.00098 | 2.57929 | 363 ft | 4 kts | 357° |
| 2026-05-04 09:26 | 49.00075 | 2.57922 | 366 ft | 4 kts | 49° |
| 2026-05-04 09:26 | 49.00065 | 2.57888 | 365 ft | 4 kts | 86° |
| 2026-05-04 09:26 | 49.00066 | 2.57846 | 365 ft | 4 kts | 95° |
| 2026-05-04 09:26 | 49.00067 | 2.57807 | 365 ft | 2 kts | 86° |
| 2026-05-04 09:27 | 49.00067 | 2.57805 | 365 ft | 4 kts | 85° |
| 2026-05-04 09:30 | 49.00067 | 2.57809 | 365 ft | 1 kts | 85° |
| 2026-05-04 09:30 | 49.00069 | 2.57843 | 364 ft | 6 kts | 86° |
| 2026-05-04 09:30 | 49.00072 | 2.57915 | 367 ft | 8 kts | 86° |
| 2026-05-04 09:30 | 49.00076 | 2.58008 | 366 ft | 10 kts | 86° |
| 2026-05-04 09:31 | 49.00082 | 2.58118 | 365 ft | 11 kts | 84° |
| 2026-05-04 09:31 | 49.00088 | 2.58239 | 366 ft | 11 kts | 92° |
| 2026-05-04 09:31 | 49.00060 | 2.58310 | 369 ft | 7 kts | 154° |
| 2026-05-04 09:31 | 49.00010 | 2.58303 | 365 ft | 8 kts | 194° |
| 2026-05-04 09:32 | 48.99949 | 2.58295 | 364 ft | 9 kts | 161° |
| 2026-05-04 09:32 | 48.99926 | 2.58375 | 368 ft | 9 kts | 93° |
| 2026-05-04 09:34 | 48.99983 | 2.59451 | 366 ft | 16 kts | 85° |
| 2026-05-04 09:34 | 48.99993 | 2.59629 | 365 ft | 17 kts | 85° |
| 2026-05-04 09:34 | 49.00002 | 2.59802 | 366 ft | 15 kts | 85° |
| 2026-05-04 09:34 | 49.00010 | 2.59944 | 364 ft | 8 kts | 85° |
| 2026-05-04 09:35 | 49.00010 | 2.59998 | 364 ft | 8 kts | 96° |
| 2026-05-04 09:35 | 48.99975 | 2.60070 | 368 ft | 4 kts | 175° |
| 2026-05-04 09:35 | 48.99943 | 2.60053 | 366 ft | 6 kts | 207° |
| 2026-05-04 09:35 | 48.99907 | 2.60005 | 366 ft | 8 kts | 223° |
| 2026-05-04 09:37 | 48.99622 | 2.55976 | 729 ft | 163 kts | 272° |
| 2026-05-04 09:37 | 48.99593 | 2.54260 | 1318 ft | 167 kts | 270° |
| 2026-05-04 09:38 | 48.99577 | 2.52480 | 1912 ft | 167 kts | 270° |
| 2026-05-04 09:38 | 48.99540 | 2.50692 | 2468 ft | 171 kts | 269° |
| 2026-05-04 09:38 | 48.99484 | 2.48848 | 3102 ft | 176 kts | 265° |
| 2026-05-04 09:38 | 48.99390 | 2.46953 | 3719 ft | 182 kts | 263° |
| 2026-05-04 09:39 | 48.99257 | 2.44970 | 4275 ft | 196 kts | 264° |
| 2026-05-04 09:39 | 48.99127 | 2.42827 | 4742 ft | 210 kts | 265° |
| 2026-05-04 09:39 | 48.99015 | 2.40521 | 5108 ft | 226 kts | 265° |
| 2026-05-04 09:39 | 48.98885 | 2.38038 | 5509 ft | 245 kts | 266° |
| 2026-05-04 09:40 | 48.98753 | 2.35339 | 5918 ft | 265 kts | 265° |
| 2026-05-04 09:40 | 48.98560 | 2.32474 | 6452 ft | 277 kts | 264° |
| 2026-05-04 09:40 | 48.98368 | 2.29529 | 7162 ft | 281 kts | 266° |
| 2026-05-04 09:40 | 48.98200 | 2.26555 | 7955 ft | 282 kts | 266° |
| 2026-05-04 09:41 | 48.98000 | 2.23578 | 8806 ft | 283 kts | 264° |
| 2026-05-04 09:42 | 48.95565 | 2.01393 | 12998 ft | 340 kts | 228° |
| 2026-05-04 09:43 | 48.93694 | 1.99250 | 13775 ft | 340 kts | 207° |
| 2026-05-04 09:43 | 48.91449 | 1.98166 | 14513 ft | 339 kts | 189° |
| 2026-05-04 09:43 | 48.89109 | 1.98277 | 15252 ft | 338 kts | 168° |
| 2026-05-04 09:43 | 48.86842 | 1.99308 | 15857 ft | 343 kts | 165° |
| 2026-05-04 09:44 | 48.84467 | 1.99778 | 16406 ft | 348 kts | 181° |
| 2026-05-04 09:44 | 48.82034 | 1.99685 | 16983 ft | 352 kts | 182° |
| 2026-05-04 09:44 | 48.79569 | 1.99524 | 17608 ft | 356 kts | 182° |
| 2026-05-04 09:46 | 48.62057 | 1.99363 | 22333 ft | 366 kts | 181° |
| 2026-05-04 09:46 | 48.59509 | 1.99449 | 23015 ft | 367 kts | 181° |
| 2026-05-04 09:46 | 48.56947 | 1.99548 | 23624 ft | 369 kts | 180° |
| 2026-05-04 09:47 | 48.54370 | 1.99647 | 24146 ft | 371 kts | 180° |
| 2026-05-04 09:47 | 48.51783 | 1.99734 | 24651 ft | 373 kts | 181° |
| 2026-05-04 09:49 | 48.33367 | 2.00241 | 28036 ft | 384 kts | 180° |
| 2026-05-04 09:49 | 48.30687 | 2.00310 | 28485 ft | 386 kts | 180° |
| 2026-05-04 09:49 | 48.27994 | 2.00383 | 28916 ft | 388 kts | 180° |
| 2026-05-04 09:51 | 48.11556 | 2.00854 | 31212 ft | 400 kts | 180° |
| 2026-05-04 09:51 | 48.08768 | 2.00934 | 31535 ft | 402 kts | 180° |
| 2026-05-04 09:51 | 48.05962 | 2.01025 | 31852 ft | 404 kts | 180° |
| 2026-05-04 09:51 | 48.03167 | 2.01168 | 32143 ft | 407 kts | 179° |
| 2026-05-04 09:52 | 48.00357 | 2.01343 | 32301 ft | 412 kts | 179° |
| 2026-05-04 09:52 | 47.97476 | 2.01532 | 32457 ft | 417 kts | 179° |
| 2026-05-04 09:52 | 47.94557 | 2.01723 | 32613 ft | 422 kts | 179° |
| 2026-05-04 09:52 | 47.91606 | 2.01911 | 32772 ft | 427 kts | 179° |
| 2026-05-04 09:53 | 47.88620 | 2.02096 | 32945 ft | 432 kts | 179° |
| 2026-05-04 09:53 | 47.85601 | 2.02278 | 33123 ft | 436 kts | 179° |
| 2026-05-04 09:53 | 47.82553 | 2.02460 | 33334 ft | 440 kts | 179° |
| 2026-05-04 09:53 | 47.79491 | 2.02641 | 33673 ft | 440 kts | 179° |
| 2026-05-04 09:54 | 47.76438 | 2.02822 | 34072 ft | 439 kts | 179° |
| 2026-05-04 09:54 | 47.73388 | 2.03002 | 34352 ft | 439 kts | 180° |
| 2026-05-04 09:54 | 47.70336 | 2.03182 | 34555 ft | 440 kts | 180° |
| 2026-05-04 09:54 | 47.67270 | 2.03361 | 34755 ft | 441 kts | 180° |
| 2026-05-04 09:55 | 47.64201 | 2.03541 | 34969 ft | 442 kts | 180° |
| 2026-05-04 09:55 | 47.61127 | 2.03724 | 35173 ft | 443 kts | 180° |
| 2026-05-04 09:55 | 47.58044 | 2.03904 | 35379 ft | 444 kts | 180° |
| 2026-05-04 09:55 | 47.54957 | 2.04080 | 35573 ft | 444 kts | 180° |
| 2026-05-04 09:56 | 47.51863 | 2.04254 | 35763 ft | 445 kts | 180° |
| 2026-05-04 09:56 | 47.48765 | 2.04428 | 35985 ft | 446 kts | 180° |
| 2026-05-04 09:56 | 47.45658 | 2.04603 | 36176 ft | 447 kts | 180° |
| 2026-05-04 09:56 | 47.42549 | 2.04779 | 36365 ft | 447 kts | 180° |
| 2026-05-04 09:57 | 47.39437 | 2.04955 | 36543 ft | 448 kts | 180° |
| 2026-05-04 09:57 | 47.36319 | 2.05106 | 36708 ft | 448 kts | 182° |
| 2026-05-04 09:57 | 47.33208 | 2.04880 | 36839 ft | 448 kts | 188° |
| 2026-05-04 09:57 | 47.30115 | 2.04268 | 36985 ft | 449 kts | 190° |
| 2026-05-04 09:58 | 47.27029 | 2.03547 | 37155 ft | 449 kts | 191° |
| 2026-05-04 09:58 | 47.23951 | 2.02771 | 37320 ft | 449 kts | 191° |
| 2026-05-04 09:58 | 47.20872 | 2.01973 | 37522 ft | 450 kts | 192° |
| 2026-05-04 10:00 | 46.99135 | 1.96440 | 38525 ft | 455 kts | 192° |
| 2026-05-04 10:00 | 46.96007 | 1.95657 | 38655 ft | 456 kts | 192° |
| 2026-05-04 10:02 | 46.74053 | 1.90184 | 38952 ft | 459 kts | 192° |
| 2026-05-04 10:04 | 46.52083 | 1.84749 | 38954 ft | 457 kts | 192° |
| 2026-05-04 10:04 | 46.45837 | 1.83214 | 38963 ft | 454 kts | 192° |
| 2026-05-04 10:05 | 46.39608 | 1.81684 | 38962 ft | 454 kts | 192° |
| 2026-05-04 10:05 | 46.33379 | 1.80159 | 38961 ft | 454 kts | 192° |
| 2026-05-04 10:06 | 46.27298 | 1.77916 | 38963 ft | 450 kts | 203° |
| 2026-05-04 10:06 | 46.21902 | 1.73442 | 38966 ft | 448 kts | 218° |
| 2026-05-04 10:08 | 46.05360 | 1.52849 | 38959 ft | 450 kts | 220° |
| 2026-05-04 10:08 | 46.00622 | 1.46970 | 38962 ft | 450 kts | 220° |
| 2026-05-04 10:09 | 45.96053 | 1.40829 | 38958 ft | 450 kts | 229° |
| 2026-05-04 10:09 | 45.92579 | 1.33356 | 38964 ft | 452 kts | 239° |
| 2026-05-04 10:10 | 45.89668 | 1.25341 | 38966 ft | 453 kts | 241° |
| 2026-05-04 10:10 | 45.86843 | 1.17264 | 38982 ft | 453 kts | 241° |
| 2026-05-04 10:11 | 45.83993 | 1.09189 | 38959 ft | 455 kts | 241° |
| 2026-05-04 10:11 | 45.80492 | 1.01703 | 38959 ft | 452 kts | 227° |
| 2026-05-04 10:12 | 45.75914 | 0.95571 | 38967 ft | 451 kts | 220° |
| 2026-05-04 10:12 | 45.71104 | 0.89820 | 38960 ft | 451 kts | 219° |
| 2026-05-04 10:13 | 45.66263 | 0.84122 | 38963 ft | 450 kts | 219° |
| 2026-05-04 10:13 | 45.61437 | 0.78410 | 38947 ft | 450 kts | 219° |
| 2026-05-04 10:14 | 45.56609 | 0.72677 | 38963 ft | 453 kts | 219° |
| 2026-05-04 10:16 | 45.37171 | 0.49701 | 38963 ft | 454 kts | 219° |
| 2026-05-04 10:16 | 45.32308 | 0.43987 | 38962 ft | 454 kts | 219° |
| 2026-05-04 10:17 | 45.27442 | 0.38283 | 38977 ft | 454 kts | 219° |
| 2026-05-04 10:19 | 45.07894 | 0.15498 | 38942 ft | 455 kts | 219° |
| 2026-05-04 10:19 | 45.02996 | 0.09819 | 38957 ft | 455 kts | 219° |
| 2026-05-04 10:20 | 44.98095 | 0.04147 | 38951 ft | 455 kts | 219° |
| 2026-05-04 10:20 | 44.93193 | -0.01503 | 38947 ft | 454 kts | 219° |
| 2026-05-04 10:21 | 44.88287 | -0.07145 | 38946 ft | 456 kts | 219° |
| 2026-05-04 10:21 | 44.83370 | -0.12791 | 38945 ft | 456 kts | 219° |
| 2026-05-04 10:22 | 44.75985 | -0.21248 | 38943 ft | 456 kts | 219° |
| 2026-05-04 10:23 | 44.71059 | -0.26872 | 38943 ft | 456 kts | 219° |
| 2026-05-04 10:25 | 44.51424 | -0.46931 | 38941 ft | 455 kts | 214° |
| 2026-05-04 10:25 | 44.46171 | -0.51891 | 38940 ft | 455 kts | 214° |
| 2026-05-04 10:26 | 44.40941 | -0.56887 | 38949 ft | 455 kts | 215° |
| 2026-05-04 10:26 | 44.35718 | -0.61883 | 38953 ft | 455 kts | 215° |
| 2026-05-04 10:27 | 44.30495 | -0.66865 | 38947 ft | 455 kts | 215° |
| 2026-05-04 10:27 | 44.25265 | -0.71825 | 38952 ft | 455 kts | 214° |
| 2026-05-04 10:28 | 44.19983 | -0.76686 | 38970 ft | 455 kts | 214° |
| 2026-05-04 10:28 | 44.14688 | -0.81514 | 38945 ft | 455 kts | 214° |
| 2026-05-04 10:29 | 44.09389 | -0.86355 | 38948 ft | 456 kts | 214° |
| 2026-05-04 10:29 | 44.04091 | -0.91199 | 38966 ft | 456 kts | 214° |
| 2026-05-04 10:30 | 43.98794 | -0.96037 | 38965 ft | 456 kts | 214° |
| 2026-05-04 10:30 | 43.93499 | -1.00862 | 38968 ft | 455 kts | 214° |
| 2026-05-04 10:31 | 43.88208 | -1.05672 | 38967 ft | 455 kts | 214° |
| 2026-05-04 10:32 | 43.69668 | -1.22440 | 38968 ft | 455 kts | 214° |
| 2026-05-04 10:33 | 43.64365 | -1.27214 | 38970 ft | 455 kts | 214° |
| 2026-05-04 10:33 | 43.59095 | -1.31947 | 38990 ft | 455 kts | 214° |
| 2026-05-04 10:34 | 43.53793 | -1.36700 | 38991 ft | 454 kts | 214° |
| 2026-05-04 10:34 | 43.48492 | -1.41441 | 38994 ft | 454 kts | 214° |
| 2026-05-04 10:35 | 43.43188 | -1.46176 | 38994 ft | 454 kts | 214° |
| 2026-05-04 10:35 | 43.37879 | -1.50904 | 38991 ft | 455 kts | 214° |
| 2026-05-04 10:36 | 43.32570 | -1.55623 | 38999 ft | 455 kts | 214° |
| 2026-05-04 10:36 | 43.27084 | -1.59998 | 39014 ft | 458 kts | 206° |
| 2026-05-04 10:37 | 43.20931 | -1.62411 | 39000 ft | 463 kts | 193° |
| 2026-05-04 10:37 | 43.14534 | -1.63604 | 39007 ft | 464 kts | 190° |
| 2026-05-04 10:39 | 42.92110 | -1.67159 | 38981 ft | 461 kts | 191° |
| 2026-05-04 10:40 | 42.85733 | -1.68210 | 38966 ft | 461 kts | 191° |
| 2026-05-04 10:40 | 42.79363 | -1.69258 | 38964 ft | 461 kts | 191° |
| 2026-05-04 10:41 | 42.73099 | -1.70887 | 38965 ft | 456 kts | 201° |
| 2026-05-04 10:41 | 42.67289 | -1.74249 | 38967 ft | 453 kts | 208° |
| 2026-05-04 10:42 | 42.61632 | -1.78046 | 38965 ft | 454 kts | 209° |
| 2026-05-04 10:42 | 42.55995 | -1.81894 | 38967 ft | 453 kts | 209° |
| 2026-05-04 10:43 | 42.50366 | -1.85696 | 38974 ft | 452 kts | 209° |
| 2026-05-04 10:45 | 42.27858 | -2.00698 | 38980 ft | 451 kts | 208° |
| 2026-05-04 10:45 | 42.22231 | -2.04441 | 38973 ft | 451 kts | 208° |
| 2026-05-04 10:46 | 42.16595 | -2.08161 | 38960 ft | 451 kts | 208° |
| 2026-05-04 10:46 | 42.10969 | -2.11873 | 38970 ft | 449 kts | 208° |
| 2026-05-04 10:47 | 42.05355 | -2.15568 | 38969 ft | 449 kts | 208° |
| 2026-05-04 10:47 | 41.99745 | -2.19257 | 38969 ft | 449 kts | 208° |
| 2026-05-04 10:49 | 41.77271 | -2.33965 | 38973 ft | 451 kts | 208° |
| 2026-05-04 10:50 | 41.71661 | -2.37619 | 38972 ft | 451 kts | 208° |
| 2026-05-04 10:52 | 41.49146 | -2.52211 | 38972 ft | 448 kts | 209° |
| 2026-05-04 10:52 | 41.43546 | -2.55826 | 38971 ft | 447 kts | 209° |
| 2026-05-04 10:54 | 41.22468 | -2.62277 | 38978 ft | 462 kts | 181° |
| 2026-05-04 10:54 | 41.19256 | -2.61976 | 38977 ft | 463 kts | 181° |
| 2026-05-04 10:56 | 40.93605 | -2.59553 | 38979 ft | 461 kts | 181° |
| 2026-05-04 10:57 | 40.87203 | -2.58977 | 38959 ft | 461 kts | 182° |
| 2026-05-04 10:57 | 40.80795 | -2.58400 | 38980 ft | 462 kts | 182° |
| 2026-05-04 10:58 | 40.74387 | -2.57822 | 38985 ft | 462 kts | 182° |
| 2026-05-04 10:58 | 40.67974 | -2.57246 | 38981 ft | 462 kts | 182° |
| 2026-05-04 10:59 | 40.61562 | -2.56671 | 38983 ft | 462 kts | 182° |
| 2026-05-04 10:59 | 40.55195 | -2.56101 | 38986 ft | 462 kts | 182° |
| 2026-05-04 11:00 | 40.48776 | -2.55529 | 38986 ft | 462 kts | 182° |
| 2026-05-04 11:01 | 40.27255 | -2.59375 | 38991 ft | 444 kts | 205° |
| 2026-05-04 11:02 | 40.24373 | -2.60848 | 38992 ft | 444 kts | 205° |
| 2026-05-04 11:05 | 39.81030 | -2.82553 | 38999 ft | 445 kts | 205° |
| 2026-05-04 11:06 | 39.75235 | -2.85419 | 38984 ft | 446 kts | 206° |
| 2026-05-04 11:06 | 39.69438 | -2.88282 | 38995 ft | 446 kts | 206° |
| 2026-05-04 11:10 | 39.28862 | -3.08204 | 38986 ft | 448 kts | 206° |
| 2026-05-04 11:12 | 39.06500 | -3.19027 | 38978 ft | 447 kts | 206° |
| 2026-05-04 11:12 | 39.00719 | -3.21821 | 38991 ft | 446 kts | 206° |
| 2026-05-04 11:13 | 38.94905 | -3.24631 | 38989 ft | 446 kts | 206° |
| 2026-05-04 11:13 | 38.89087 | -3.27427 | 38991 ft | 446 kts | 206° |
| 2026-05-04 11:14 | 38.83269 | -3.30216 | 38973 ft | 446 kts | 206° |
| 2026-05-04 11:16 | 38.60088 | -3.41295 | 38972 ft | 444 kts | 206° |
| 2026-05-04 11:16 | 38.54302 | -3.44048 | 39008 ft | 443 kts | 206° |
| 2026-05-04 11:17 | 38.48516 | -3.46795 | 38993 ft | 444 kts | 206° |
| 2026-05-04 11:19 | 38.25343 | -3.57758 | 39002 ft | 444 kts | 206° |
| 2026-05-04 11:19 | 38.19547 | -3.60493 | 39002 ft | 444 kts | 206° |
| 2026-05-04 11:20 | 38.13760 | -3.63229 | 39001 ft | 443 kts | 207° |
| 2026-05-04 11:20 | 38.08131 | -3.66335 | 39002 ft | 439 kts | 211° |
| 2026-05-04 11:22 | 37.85863 | -3.79123 | 39004 ft | 439 kts | 210° |
| 2026-05-04 11:23 | 37.80290 | -3.82251 | 39018 ft | 438 kts | 210° |
| 2026-05-04 11:25 | 37.54631 | -3.96621 | 39010 ft | 437 kts | 210° |
| 2026-05-04 11:27 | 37.29605 | -4.10512 | 39012 ft | 436 kts | 210° |
| 2026-05-04 11:28 | 37.24064 | -4.13577 | 39023 ft | 435 kts | 210° |
| 2026-05-04 11:28 | 37.19458 | -4.16121 | 39022 ft | 435 kts | 210° |
| 2026-05-04 11:29 | 37.13920 | -4.19176 | 39020 ft | 435 kts | 210° |
| 2026-05-04 11:29 | 37.07485 | -4.22717 | 39016 ft | 434 kts | 210° |
| 2026-05-04 11:33 | 36.71057 | -4.46220 | 39019 ft | 429 kts | 218° |
| 2026-05-04 11:33 | 36.65998 | -4.50171 | 39000 ft | 429 kts | 218° |
| 2026-05-04 11:34 | 36.60927 | -4.54107 | 39020 ft | 430 kts | 218° |
| 2026-05-04 11:34 | 36.55839 | -4.58039 | 39020 ft | 431 kts | 218° |
| 2026-05-04 11:35 | 36.50786 | -4.61939 | 39015 ft | 430 kts | 218° |
| 2026-05-04 11:35 | 36.45670 | -4.65881 | 39029 ft | 430 kts | 218° |
| 2026-05-04 11:36 | 36.40590 | -4.69793 | 39003 ft | 430 kts | 218° |
| 2026-05-04 11:36 | 36.35504 | -4.73704 | 39041 ft | 430 kts | 218° |
| 2026-05-04 11:37 | 36.30417 | -4.77610 | 39040 ft | 430 kts | 218° |
| 2026-05-04 11:37 | 36.25363 | -4.81484 | 39048 ft | 430 kts | 218° |
| 2026-05-04 11:38 | 36.20271 | -4.85381 | 39046 ft | 430 kts | 218° |
| 2026-05-04 11:38 | 36.15179 | -4.89273 | 39048 ft | 430 kts | 218° |
| 2026-05-04 11:39 | 36.10126 | -4.93209 | 39054 ft | 428 kts | 219° |
| 2026-05-04 11:41 | 35.92651 | -5.07071 | 39068 ft | 426 kts | 219° |
| 2026-05-04 11:41 | 35.87658 | -5.10998 | 39070 ft | 426 kts | 219° |
| 2026-05-04 11:42 | 35.82662 | -5.14925 | 39059 ft | 426 kts | 219° |
| 2026-05-04 11:42 | 35.77883 | -5.19158 | 39063 ft | 422 kts | 224° |
| 2026-05-04 11:43 | 35.73284 | -5.23551 | 39066 ft | 421 kts | 224° |
| 2026-05-04 11:43 | 35.68628 | -5.27940 | 39073 ft | 422 kts | 223° |
| 2026-05-04 11:44 | 35.63936 | -5.32277 | 39075 ft | 422 kts | 223° |
| 2026-05-04 11:44 | 35.59242 | -5.36580 | 39074 ft | 419 kts | 223° |
| 2026-05-04 11:45 | 35.54573 | -5.40851 | 39074 ft | 418 kts | 223° |
| 2026-05-04 11:45 | 35.49904 | -5.45123 | 39067 ft | 419 kts | 223° |
| 2026-05-04 11:46 | 35.45230 | -5.49394 | 39071 ft | 419 kts | 223° |
| 2026-05-04 11:46 | 35.40557 | -5.53657 | 39066 ft | 419 kts | 223° |
| 2026-05-04 11:47 | 35.35881 | -5.57916 | 39060 ft | 419 kts | 223° |
| 2026-05-04 11:47 | 35.31219 | -5.62155 | 39065 ft | 417 kts | 224° |
| 2026-05-04 11:48 | 35.26568 | -5.66378 | 39079 ft | 416 kts | 224° |
| 2026-05-04 11:48 | 35.21916 | -5.70598 | 39085 ft | 416 kts | 223° |
| 2026-05-04 11:49 | 35.17264 | -5.74809 | 39091 ft | 416 kts | 223° |
| 2026-05-04 11:49 | 35.12617 | -5.79012 | 39095 ft | 416 kts | 223° |
| 2026-05-04 11:50 | 35.07969 | -5.83211 | 39085 ft | 416 kts | 223° |
| 2026-05-04 11:50 | 35.03338 | -5.87388 | 39092 ft | 417 kts | 223° |
| 2026-05-04 11:51 | 34.98653 | -5.91607 | 39097 ft | 417 kts | 223° |
| 2026-05-04 11:51 | 34.93987 | -5.95801 | 39095 ft | 417 kts | 223° |
| 2026-05-04 11:52 | 34.89345 | -5.99968 | 39092 ft | 417 kts | 223° |
| 2026-05-04 11:52 | 34.84672 | -6.04156 | 39089 ft | 417 kts | 223° |
| 2026-05-04 11:53 | 34.79995 | -6.08344 | 39091 ft | 417 kts | 223° |
| 2026-05-04 11:53 | 34.75321 | -6.12522 | 39087 ft | 417 kts | 223° |
| 2026-05-04 11:55 | 34.56611 | -6.29186 | 39071 ft | 417 kts | 222° |
| 2026-05-04 11:56 | 34.51927 | -6.33342 | 39095 ft | 417 kts | 222° |
| 2026-05-04 11:56 | 34.47240 | -6.37497 | 39094 ft | 417 kts | 222° |
| 2026-05-04 11:57 | 34.42550 | -6.41647 | 39090 ft | 417 kts | 222° |
| 2026-05-04 11:57 | 34.37860 | -6.45791 | 39091 ft | 417 kts | 222° |
| 2026-05-04 11:58 | 34.33200 | -6.49903 | 39094 ft | 417 kts | 222° |
| 2026-05-04 11:58 | 34.28506 | -6.54039 | 39077 ft | 417 kts | 222° |
| 2026-05-04 11:59 | 34.23799 | -6.58183 | 39101 ft | 419 kts | 222° |
| 2026-05-04 11:59 | 34.19081 | -6.62329 | 39105 ft | 420 kts | 222° |
| 2026-05-04 12:00 | 34.14355 | -6.66475 | 39097 ft | 420 kts | 221° |
| 2026-05-04 12:00 | 34.09632 | -6.70614 | 39102 ft | 420 kts | 221° |
| 2026-05-04 12:01 | 34.04911 | -6.74745 | 39103 ft | 420 kts | 221° |
| 2026-05-04 12:02 | 33.87902 | -6.88723 | 39096 ft | 424 kts | 220° |
| 2026-05-04 12:03 | 33.83025 | -6.92717 | 39095 ft | 424 kts | 220° |
| 2026-05-04 12:03 | 33.78146 | -6.96713 | 39091 ft | 424 kts | 220° |
| 2026-05-04 12:04 | 33.73272 | -7.00701 | 39092 ft | 425 kts | 220° |
| 2026-05-04 12:04 | 33.68368 | -7.04708 | 39098 ft | 427 kts | 220° |
| 2026-05-04 12:05 | 33.63452 | -7.08712 | 39101 ft | 427 kts | 220° |
| 2026-05-04 12:05 | 33.58535 | -7.12710 | 39100 ft | 427 kts | 220° |
| 2026-05-04 12:06 | 33.53617 | -7.16704 | 39099 ft | 427 kts | 220° |
| 2026-05-04 12:06 | 33.48698 | -7.20698 | 39098 ft | 427 kts | 220° |
| 2026-05-04 12:07 | 33.43775 | -7.24690 | 39086 ft | 428 kts | 220° |
| 2026-05-04 12:07 | 33.38853 | -7.28674 | 39097 ft | 428 kts | 220° |
| 2026-05-04 12:08 | 33.33921 | -7.32659 | 39097 ft | 428 kts | 220° |
| 2026-05-04 12:08 | 33.28988 | -7.36639 | 39078 ft | 428 kts | 220° |
| 2026-05-04 12:09 | 33.24059 | -7.40612 | 39072 ft | 428 kts | 220° |
| 2026-05-04 12:09 | 33.19124 | -7.44585 | 39076 ft | 428 kts | 220° |
| 2026-05-04 12:10 | 33.14189 | -7.48550 | 39092 ft | 428 kts | 220° |
| 2026-05-04 12:10 | 33.09229 | -7.52473 | 39099 ft | 429 kts | 218° |
| 2026-05-04 12:11 | 33.04071 | -7.56102 | 39070 ft | 431 kts | 216° |
| 2026-05-04 12:11 | 32.98869 | -7.59655 | 39071 ft | 431 kts | 216° |
| 2026-05-04 12:12 | 32.93691 | -7.63245 | 39084 ft | 430 kts | 217° |
| 2026-05-04 12:12 | 32.88533 | -7.66861 | 39063 ft | 431 kts | 217° |
| 2026-05-04 12:14 | 32.67898 | -7.81304 | 39066 ft | 431 kts | 217° |
| 2026-05-04 12:15 | 32.62729 | -7.84909 | 39043 ft | 431 kts | 217° |
| 2026-05-04 12:15 | 32.57552 | -7.88514 | 39061 ft | 432 kts | 217° |
| 2026-05-04 12:16 | 32.52374 | -7.92121 | 39062 ft | 432 kts | 217° |
| 2026-05-04 12:16 | 32.47194 | -7.95724 | 39061 ft | 432 kts | 217° |
| 2026-05-04 12:17 | 32.42887 | -7.98714 | 39062 ft | 432 kts | 217° |
| 2026-05-04 12:17 | 32.37702 | -8.02307 | 39062 ft | 432 kts | 217° |
| 2026-05-04 12:18 | 32.32512 | -8.05899 | 39071 ft | 432 kts | 217° |
| 2026-05-04 12:18 | 32.27327 | -8.09482 | 39053 ft | 432 kts | 217° |
| 2026-05-04 12:19 | 32.22138 | -8.13064 | 39052 ft | 432 kts | 217° |
| 2026-05-04 12:19 | 32.16954 | -8.16637 | 39069 ft | 432 kts | 217° |
| 2026-05-04 12:20 | 32.11472 | -8.19686 | 39052 ft | 443 kts | 206° |
| 2026-05-04 12:20 | 32.05410 | -8.21396 | 39056 ft | 451 kts | 200° |
| 2026-05-04 12:21 | 31.99233 | -8.22755 | 39052 ft | 452 kts | 199° |
| 2026-05-04 12:21 | 31.93044 | -8.24069 | 39055 ft | 452 kts | 199° |
| 2026-05-04 12:22 | 31.86865 | -8.25409 | 39053 ft | 452 kts | 199° |
| 2026-05-04 12:22 | 31.80690 | -8.26769 | 39053 ft | 452 kts | 199° |
| 2026-05-04 12:23 | 31.74510 | -8.28133 | 39051 ft | 452 kts | 200° |
| 2026-05-04 12:23 | 31.68322 | -8.29495 | 39052 ft | 452 kts | 200° |
| 2026-05-04 12:24 | 31.62140 | -8.30853 | 39062 ft | 452 kts | 199° |
| 2026-05-04 12:24 | 31.55951 | -8.32210 | 39062 ft | 452 kts | 199° |
| 2026-05-04 12:25 | 31.49764 | -8.33566 | 39054 ft | 453 kts | 200° |
| 2026-05-04 12:25 | 31.43571 | -8.34921 | 39055 ft | 453 kts | 199° |
| 2026-05-04 12:26 | 31.37371 | -8.36276 | 39053 ft | 453 kts | 199° |
| 2026-05-04 12:26 | 31.31178 | -8.37627 | 39060 ft | 453 kts | 199° |
| 2026-05-04 12:27 | 31.24980 | -8.38977 | 39061 ft | 453 kts | 199° |
| 2026-05-04 12:27 | 31.18777 | -8.40326 | 39068 ft | 454 kts | 200° |
| 2026-05-04 12:28 | 31.12568 | -8.41676 | 39064 ft | 454 kts | 200° |
| 2026-05-04 12:28 | 31.06353 | -8.43025 | 39066 ft | 454 kts | 199° |
| 2026-05-04 12:29 | 31.00140 | -8.44368 | 39058 ft | 454 kts | 199° |
| 2026-05-04 12:29 | 30.93929 | -8.45711 | 39050 ft | 454 kts | 200° |
| 2026-05-04 12:30 | 30.87715 | -8.47055 | 39061 ft | 454 kts | 200° |
| 2026-05-04 12:30 | 30.81516 | -8.48393 | 39047 ft | 454 kts | 200° |
| 2026-05-04 12:31 | 30.75295 | -8.49736 | 39035 ft | 455 kts | 200° |
| 2026-05-04 12:31 | 30.69118 | -8.51066 | 39046 ft | 455 kts | 200° |
| 2026-05-04 12:32 | 30.59723 | -8.53084 | 39028 ft | 456 kts | 200° |
| 2026-05-04 12:33 | 30.53474 | -8.54424 | 39029 ft | 456 kts | 200° |
| 2026-05-04 12:33 | 30.47227 | -8.55762 | 39037 ft | 457 kts | 200° |
| 2026-05-04 12:34 | 30.40978 | -8.57099 | 39031 ft | 456 kts | 200° |
| 2026-05-04 12:34 | 30.34773 | -8.58424 | 39034 ft | 457 kts | 200° |
| 2026-05-04 12:35 | 30.28525 | -8.59759 | 39032 ft | 456 kts | 200° |
| 2026-05-04 12:35 | 30.22246 | -8.61100 | 39025 ft | 456 kts | 200° |
| 2026-05-04 12:36 | 30.16012 | -8.62429 | 39016 ft | 455 kts | 200° |
| 2026-05-04 12:36 | 30.09763 | -8.63759 | 39003 ft | 457 kts | 200° |
| 2026-05-04 12:37 | 30.03543 | -8.65078 | 39026 ft | 458 kts | 200° |
| 2026-05-04 12:37 | 29.97277 | -8.66405 | 39013 ft | 457 kts | 200° |
| 2026-05-04 12:38 | 29.91026 | -8.67730 | 39016 ft | 457 kts | 200° |
| 2026-05-04 12:38 | 29.84764 | -8.69056 | 39001 ft | 457 kts | 200° |
| 2026-05-04 12:39 | 29.78502 | -8.70381 | 39006 ft | 458 kts | 199° |
| 2026-05-04 12:39 | 29.72241 | -8.71701 | 38985 ft | 457 kts | 199° |
| 2026-05-04 12:40 | 29.65980 | -8.73020 | 38980 ft | 457 kts | 200° |
| 2026-05-04 12:40 | 29.59718 | -8.74339 | 38960 ft | 457 kts | 200° |
| 2026-05-04 12:41 | 29.53455 | -8.75658 | 38897 ft | 457 kts | 200° |
| 2026-05-04 12:41 | 29.47183 | -8.76973 | 38936 ft | 458 kts | 199° |
| 2026-05-04 12:42 | 29.40912 | -8.78287 | 38914 ft | 458 kts | 199° |
| 2026-05-04 12:42 | 29.34641 | -8.79600 | 38930 ft | 459 kts | 199° |
| 2026-05-04 12:43 | 29.28365 | -8.80914 | 38912 ft | 458 kts | 199° |
| 2026-05-04 12:43 | 29.22093 | -8.82225 | 38901 ft | 458 kts | 199° |
| 2026-05-04 12:44 | 29.15816 | -8.83536 | 38899 ft | 458 kts | 199° |
| 2026-05-04 12:44 | 29.09542 | -8.84845 | 38904 ft | 459 kts | 199° |
| 2026-05-04 12:45 | 29.03272 | -8.86150 | 38892 ft | 458 kts | 199° |
| 2026-05-04 12:45 | 28.97002 | -8.87451 | 38893 ft | 458 kts | 199° |
| 2026-05-04 12:46 | 28.90737 | -8.88752 | 38891 ft | 458 kts | 199° |
| 2026-05-04 12:46 | 28.84474 | -8.90050 | 38891 ft | 457 kts | 199° |
| 2026-05-04 12:47 | 28.78216 | -8.91347 | 38891 ft | 457 kts | 199° |
| 2026-05-04 12:47 | 28.71951 | -8.92644 | 38893 ft | 457 kts | 199° |
| 2026-05-04 12:48 | 28.65690 | -8.93938 | 38872 ft | 457 kts | 199° |
| 2026-05-04 12:48 | 28.59431 | -8.95230 | 38913 ft | 457 kts | 199° |
| 2026-05-04 12:49 | 28.53221 | -8.96510 | 38917 ft | 457 kts | 199° |
| 2026-05-04 12:49 | 28.46968 | -8.97797 | 38923 ft | 457 kts | 199° |
| 2026-05-04 12:50 | 28.40709 | -8.99085 | 38995 ft | 457 kts | 199° |
| 2026-05-04 12:50 | 28.37583 | -8.99728 | 39166 ft | 457 kts | 199° |
| 2026-05-04 12:50 | 28.34456 | -9.00370 | 39339 ft | 455 kts | 199° |
| 2026-05-04 12:50 | 28.31343 | -9.01007 | 39533 ft | 454 kts | 199° |
| 2026-05-04 12:51 | 28.28233 | -9.01644 | 39703 ft | 454 kts | 199° |
| 2026-05-04 12:51 | 28.25127 | -9.02281 | 39833 ft | 454 kts | 199° |
| 2026-05-04 12:51 | 28.22020 | -9.02919 | 39922 ft | 455 kts | 199° |
| 2026-05-04 12:52 | 28.15803 | -9.04192 | 39938 ft | 454 kts | 199° |
| 2026-05-04 12:52 | 28.09579 | -9.05464 | 39942 ft | 454 kts | 199° |
| 2026-05-04 12:53 | 28.03367 | -9.06734 | 39937 ft | 454 kts | 198° |
| 2026-05-04 12:53 | 27.97162 | -9.08002 | 39944 ft | 454 kts | 198° |
| 2026-05-04 12:54 | 27.90937 | -9.09252 | 39958 ft | 454 kts | 198° |
| 2026-05-04 12:54 | 27.84726 | -9.10502 | 39952 ft | 453 kts | 198° |
| 2026-05-04 12:55 | 27.78524 | -9.11763 | 39952 ft | 453 kts | 198° |
| 2026-05-04 12:55 | 27.72327 | -9.13024 | 39953 ft | 453 kts | 198° |
| 2026-05-04 12:56 | 27.66120 | -9.14288 | 39951 ft | 453 kts | 198° |
| 2026-05-04 12:56 | 27.60058 | -9.15838 | 39949 ft | 448 kts | 202° |
| 2026-05-04 12:57 | 27.54031 | -9.17633 | 39952 ft | 448 kts | 202° |
| 2026-05-04 12:57 | 27.47998 | -9.19401 | 39952 ft | 448 kts | 201° |
| 2026-05-04 12:58 | 27.41942 | -9.21120 | 39951 ft | 449 kts | 201° |
| 2026-05-04 12:58 | 27.35880 | -9.22819 | 39952 ft | 449 kts | 201° |
| 2026-05-04 12:59 | 27.29828 | -9.24531 | 39955 ft | 449 kts | 202° |
| 2026-05-04 12:59 | 27.23770 | -9.26235 | 39951 ft | 449 kts | 201° |
| 2026-05-04 13:00 | 27.17701 | -9.27918 | 39953 ft | 449 kts | 201° |
| 2026-05-04 13:00 | 27.11640 | -9.29606 | 39954 ft | 448 kts | 201° |
| 2026-05-04 13:01 | 27.05586 | -9.31301 | 39954 ft | 448 kts | 201° |
| 2026-05-04 13:01 | 26.99529 | -9.32982 | 39955 ft | 449 kts | 201° |
| 2026-05-04 13:02 | 26.93509 | -9.34652 | 39953 ft | 449 kts | 201° |
| 2026-05-04 13:02 | 26.87450 | -9.36336 | 39955 ft | 449 kts | 201° |
| 2026-05-04 13:03 | 26.81396 | -9.38026 | 39953 ft | 448 kts | 201° |
| 2026-05-04 13:03 | 26.75348 | -9.39708 | 39956 ft | 448 kts | 201° |
| 2026-05-04 13:04 | 26.70281 | -9.41112 | 39956 ft | 448 kts | 201° |
| 2026-05-04 13:04 | 26.64234 | -9.42784 | 39961 ft | 448 kts | 201° |
| 2026-05-04 13:05 | 26.58187 | -9.44455 | 39959 ft | 448 kts | 201° |
| 2026-05-04 13:05 | 26.52142 | -9.46123 | 39965 ft | 447 kts | 201° |
| 2026-05-04 13:06 | 26.46153 | -9.47772 | 39964 ft | 446 kts | 201° |
| 2026-05-04 13:06 | 26.40139 | -9.49437 | 39961 ft | 445 kts | 202° |
| 2026-05-04 13:07 | 26.34126 | -9.51111 | 39967 ft | 445 kts | 201° |
| 2026-05-04 13:07 | 26.28113 | -9.52769 | 39964 ft | 445 kts | 201° |
| 2026-05-04 13:08 | 26.22100 | -9.54420 | 39959 ft | 445 kts | 202° |
| 2026-05-04 13:08 | 26.16100 | -9.56068 | 39966 ft | 444 kts | 202° |
| 2026-05-04 13:09 | 26.10103 | -9.57712 | 39964 ft | 443 kts | 201° |
| 2026-05-04 13:09 | 26.04112 | -9.59351 | 39961 ft | 444 kts | 201° |
| 2026-05-04 13:10 | 25.98106 | -9.60955 | 39959 ft | 444 kts | 201° |
| 2026-05-04 13:10 | 25.92118 | -9.62597 | 39950 ft | 443 kts | 202° |
| 2026-05-04 13:11 | 25.86142 | -9.64248 | 39961 ft | 442 kts | 202° |
| 2026-05-04 13:11 | 25.80166 | -9.65882 | 39955 ft | 442 kts | 201° |
| 2026-05-04 13:12 | 25.74191 | -9.67507 | 39955 ft | 442 kts | 202° |
| 2026-05-04 13:12 | 25.68218 | -9.69134 | 39955 ft | 442 kts | 202° |
| 2026-05-04 13:13 | 25.62240 | -9.70725 | 39926 ft | 442 kts | 201° |
| 2026-05-04 13:13 | 25.56297 | -9.72304 | 39957 ft | 441 kts | 201° |
| 2026-05-04 13:14 | 25.50335 | -9.73909 | 39955 ft | 441 kts | 201° |
| 2026-05-04 13:14 | 25.44378 | -9.75522 | 39955 ft | 441 kts | 201° |
| 2026-05-04 13:15 | 25.38420 | -9.77136 | 39954 ft | 441 kts | 201° |
| 2026-05-04 13:15 | 25.32462 | -9.78747 | 39956 ft | 441 kts | 201° |
| 2026-05-04 13:16 | 25.26511 | -9.80354 | 39951 ft | 440 kts | 201° |
| 2026-05-04 13:16 | 25.20559 | -9.81958 | 39953 ft | 440 kts | 201° |
| 2026-05-04 13:17 | 25.14612 | -9.83561 | 39957 ft | 440 kts | 201° |
| 2026-05-04 13:17 | 25.08667 | -9.85161 | 39953 ft | 440 kts | 201° |
| 2026-05-04 13:18 | 25.02726 | -9.86759 | 39957 ft | 439 kts | 201° |
| 2026-05-04 13:18 | 24.96784 | -9.88355 | 39958 ft | 440 kts | 201° |
| 2026-05-04 13:19 | 24.90841 | -9.89950 | 39953 ft | 440 kts | 201° |
| 2026-05-04 13:19 | 24.84893 | -9.91544 | 39953 ft | 440 kts | 201° |
| 2026-05-04 13:20 | 24.78955 | -9.93134 | 39951 ft | 440 kts | 201° |
| 2026-05-04 13:20 | 24.73008 | -9.94726 | 39950 ft | 440 kts | 201° |
| 2026-05-04 13:21 | 24.67128 | -9.96297 | 39928 ft | 440 kts | 201° |
| 2026-05-04 13:21 | 24.61183 | -9.97885 | 39951 ft | 440 kts | 201° |
| 2026-05-04 13:22 | 24.55236 | -9.99472 | 39949 ft | 440 kts | 201° |
| 2026-05-04 13:22 | 24.49280 | -10.01063 | 39949 ft | 440 kts | 201° |
| 2026-05-04 13:23 | 24.43341 | -10.02656 | 39949 ft | 440 kts | 201° |
| 2026-05-04 13:23 | 24.37388 | -10.04245 | 39949 ft | 440 kts | 201° |
| 2026-05-04 13:24 | 24.31463 | -10.05811 | 39951 ft | 440 kts | 201° |
| 2026-05-04 13:24 | 24.25509 | -10.07385 | 39946 ft | 440 kts | 200° |
| 2026-05-04 13:25 | 24.16588 | -10.09744 | 39944 ft | 440 kts | 200° |
| 2026-05-04 13:25 | 24.10636 | -10.11320 | 39944 ft | 440 kts | 201° |
| 2026-05-04 13:26 | 24.04689 | -10.12894 | 39918 ft | 440 kts | 200° |
| 2026-05-04 13:26 | 23.98752 | -10.14447 | 39946 ft | 438 kts | 198° |
| 2026-05-04 13:27 | 23.92808 | -10.15931 | 39943 ft | 438 kts | 198° |
| 2026-05-04 13:27 | 23.86876 | -10.17455 | 39945 ft | 437 kts | 199° |
| 2026-05-04 13:28 | 23.80962 | -10.19011 | 39943 ft | 437 kts | 199° |
| 2026-05-04 13:28 | 23.75050 | -10.20577 | 39954 ft | 437 kts | 199° |
| 2026-05-04 13:29 | 23.69135 | -10.22139 | 39935 ft | 439 kts | 199° |
| 2026-05-04 13:29 | 23.63179 | -10.23717 | 39941 ft | 441 kts | 199° |
| 2026-05-04 13:30 | 23.57213 | -10.25294 | 39937 ft | 441 kts | 199° |
| 2026-05-04 13:30 | 23.51245 | -10.26862 | 39939 ft | 441 kts | 199° |
| 2026-05-04 13:31 | 23.45290 | -10.28425 | 39936 ft | 441 kts | 199° |
| 2026-05-04 13:31 | 23.39379 | -10.29972 | 39944 ft | 441 kts | 199° |
| 2026-05-04 13:32 | 23.33400 | -10.31541 | 39939 ft | 443 kts | 199° |
| 2026-05-04 13:32 | 23.27408 | -10.33112 | 39938 ft | 443 kts | 200° |
| 2026-05-04 13:33 | 23.21427 | -10.34709 | 39936 ft | 443 kts | 201° |
| 2026-05-04 13:33 | 23.15450 | -10.36324 | 39935 ft | 443 kts | 201° |
| 2026-05-04 13:34 | 23.09503 | -10.37898 | 39938 ft | 443 kts | 200° |
| 2026-05-04 13:34 | 23.03502 | -10.39466 | 39936 ft | 443 kts | 203° |
| 2026-05-04 13:35 | 22.94546 | -10.41973 | 39933 ft | 444 kts | 203° |
| 2026-05-04 13:36 | 22.88550 | -10.43589 | 39935 ft | 444 kts | 202° |
| 2026-05-04 13:36 | 22.82533 | -10.45159 | 39936 ft | 445 kts | 202° |
| 2026-05-04 13:37 | 22.76515 | -10.46713 | 39933 ft | 445 kts | 202° |
| 2026-05-04 13:37 | 22.70497 | -10.48267 | 39935 ft | 445 kts | 202° |
| 2026-05-04 13:38 | 22.64465 | -10.49828 | 39934 ft | 446 kts | 202° |
| 2026-05-04 13:38 | 22.58434 | -10.51387 | 39932 ft | 446 kts | 202° |
| 2026-05-04 13:39 | 22.52402 | -10.52945 | 39930 ft | 446 kts | 202° |
| 2026-05-04 13:39 | 22.46376 | -10.54500 | 39936 ft | 446 kts | 202° |
| 2026-05-04 13:40 | 22.40341 | -10.56056 | 39930 ft | 446 kts | 202° |
| 2026-05-04 13:40 | 22.34337 | -10.57604 | 39933 ft | 447 kts | 202° |
| 2026-05-04 13:41 | 22.28301 | -10.59157 | 39936 ft | 446 kts | 202° |
| 2026-05-04 13:41 | 22.22260 | -10.60710 | 39936 ft | 446 kts | 202° |
| 2026-05-04 13:42 | 22.13216 | -10.63033 | 39933 ft | 446 kts | 202° |
| 2026-05-04 13:42 | 22.07177 | -10.64582 | 39931 ft | 446 kts | 202° |
| 2026-05-04 13:43 | 22.01131 | -10.66133 | 39931 ft | 447 kts | 201° |
| 2026-05-04 13:43 | 21.95041 | -10.67580 | 39930 ft | 448 kts | 199° |
| 2026-05-04 13:44 | 21.88956 | -10.69022 | 39930 ft | 447 kts | 200° |
| 2026-05-04 13:44 | 21.82891 | -10.70535 | 39928 ft | 447 kts | 200° |
| 2026-05-04 13:45 | 21.76842 | -10.72080 | 39914 ft | 447 kts | 201° |
| 2026-05-04 13:45 | 21.70783 | -10.73633 | 39928 ft | 448 kts | 201° |
| 2026-05-04 13:46 | 21.64710 | -10.75185 | 39927 ft | 449 kts | 201° |
| 2026-05-04 13:46 | 21.58633 | -10.76733 | 39927 ft | 449 kts | 200° |
| 2026-05-04 13:47 | 21.52559 | -10.78279 | 39922 ft | 449 kts | 200° |
| 2026-05-04 13:47 | 21.46481 | -10.79825 | 39930 ft | 449 kts | 200° |
| 2026-05-04 13:48 | 21.40401 | -10.81370 | 39912 ft | 450 kts | 201° |
| 2026-05-04 13:48 | 21.34310 | -10.82917 | 39917 ft | 450 kts | 201° |
| 2026-05-04 13:49 | 21.28217 | -10.84463 | 39921 ft | 450 kts | 201° |
| 2026-05-04 13:49 | 21.22126 | -10.86006 | 39920 ft | 450 kts | 201° |
| 2026-05-04 13:50 | 21.17065 | -10.87288 | 39912 ft | 450 kts | 201° |
| 2026-05-04 13:50 | 21.10966 | -10.88832 | 39913 ft | 450 kts | 201° |
| 2026-05-04 13:51 | 21.03884 | -10.90623 | 39912 ft | 450 kts | 201° |
| 2026-05-04 13:51 | 20.97791 | -10.92162 | 39908 ft | 450 kts | 201° |
| 2026-05-04 13:52 | 20.89639 | -10.94219 | 39917 ft | 450 kts | 201° |
| 2026-05-04 13:53 | 20.83546 | -10.95755 | 39903 ft | 449 kts | 200° |
| 2026-05-04 13:53 | 20.77463 | -10.97287 | 39885 ft | 449 kts | 201° |
| 2026-05-04 13:54 | 20.68328 | -10.99587 | 39900 ft | 450 kts | 201° |
| 2026-05-04 13:55 | 20.59183 | -11.01886 | 39896 ft | 450 kts | 201° |
| 2026-05-04 13:55 | 20.50074 | -11.04173 | 39895 ft | 450 kts | 201° |
| 2026-05-04 13:56 | 20.43972 | -11.05703 | 39883 ft | 450 kts | 201° |
| 2026-05-04 13:57 | 20.34809 | -11.07999 | 39888 ft | 451 kts | 201° |
| 2026-05-04 13:58 | 20.22582 | -11.11058 | 39882 ft | 451 kts | 201° |
| 2026-05-04 13:58 | 20.13410 | -11.13349 | 39895 ft | 451 kts | 201° |
| 2026-05-04 13:59 | 20.07293 | -11.14876 | 39878 ft | 452 kts | 201° |
| 2026-05-04 13:59 | 20.01036 | -11.15966 | 39894 ft | 465 kts | 190° |
| 2026-05-04 14:00 | 19.97767 | -11.15853 | 39984 ft | 476 kts | 182° |
| 2026-05-04 14:00 | 19.91260 | -11.13985 | 40295 ft | 494 kts | 167° |
| 2026-05-04 14:00 | 19.88068 | -11.12604 | 40438 ft | 496 kts | 165° |
| 2026-05-04 14:01 | 19.84902 | -11.11150 | 40578 ft | 497 kts | 165° |
| 2026-05-04 14:01 | 19.81779 | -11.09688 | 40703 ft | 497 kts | 165° |
| 2026-05-04 14:01 | 19.75452 | -11.06737 | 40877 ft | 497 kts | 165° |
| 2026-05-04 14:02 | 19.72284 | -11.05279 | 40877 ft | 496 kts | 165° |
| 2026-05-04 14:02 | 19.65950 | -11.02394 | 40866 ft | 495 kts | 165° |
| 2026-05-04 14:03 | 19.59609 | -10.99524 | 40871 ft | 495 kts | 165° |
| 2026-05-04 14:03 | 19.53269 | -10.96656 | 40860 ft | 495 kts | 165° |
| 2026-05-04 14:04 | 19.43759 | -10.92356 | 40865 ft | 496 kts | 165° |
| 2026-05-04 14:04 | 19.37412 | -10.89495 | 40866 ft | 496 kts | 165° |
| 2026-05-04 14:05 | 19.27882 | -10.85195 | 40870 ft | 496 kts | 165° |
| 2026-05-04 14:06 | 19.21529 | -10.82325 | 40869 ft | 496 kts | 165° |
| 2026-05-04 14:06 | 19.15175 | -10.79465 | 40868 ft | 496 kts | 165° |
| 2026-05-04 14:07 | 19.08860 | -10.76623 | 40859 ft | 497 kts | 165° |
| 2026-05-04 14:07 | 19.02502 | -10.73759 | 40863 ft | 497 kts | 165° |
| 2026-05-04 14:08 | 18.96137 | -10.70897 | 40870 ft | 497 kts | 165° |
| 2026-05-04 14:08 | 18.89769 | -10.68037 | 40868 ft | 497 kts | 165° |
| 2026-05-04 14:09 | 18.80217 | -10.63752 | 40857 ft | 497 kts | 165° |
| 2026-05-04 14:10 | 18.70657 | -10.59472 | 40866 ft | 498 kts | 165° |
| 2026-05-04 14:10 | 18.64282 | -10.56618 | 40858 ft | 498 kts | 165° |
| 2026-05-04 14:11 | 18.57889 | -10.53760 | 40857 ft | 500 kts | 165° |
| 2026-05-04 14:11 | 18.48282 | -10.49472 | 40825 ft | 500 kts | 165° |
| 2026-05-04 14:12 | 18.41879 | -10.46612 | 40835 ft | 500 kts | 165° |
| 2026-05-04 14:13 | 18.32280 | -10.42330 | 40841 ft | 499 kts | 165° |
| 2026-05-04 14:13 | 18.25887 | -10.39486 | 40834 ft | 499 kts | 165° |
| 2026-05-04 14:14 | 18.19487 | -10.36645 | 40834 ft | 499 kts | 165° |
| 2026-05-04 14:14 | 18.09888 | -10.32383 | 40824 ft | 499 kts | 165° |
| 2026-05-04 14:15 | 17.97097 | -10.26698 | 40830 ft | 499 kts | 165° |
| 2026-05-04 14:16 | 17.87509 | -10.22438 | 40827 ft | 499 kts | 165° |
| 2026-05-04 14:17 | 17.77915 | -10.18186 | 40828 ft | 500 kts | 165° |
| 2026-05-04 14:18 | 17.68303 | -10.13901 | 40823 ft | 501 kts | 164° |
| 2026-05-04 14:19 | 17.55473 | -10.08228 | 40815 ft | 500 kts | 165° |
| 2026-05-04 14:19 | 17.49047 | -10.05419 | 40820 ft | 500 kts | 165° |
| 2026-05-04 14:20 | 17.42675 | -10.02620 | 40813 ft | 500 kts | 165° |
| 2026-05-04 14:20 | 17.36258 | -9.99794 | 40826 ft | 500 kts | 165° |
| 2026-05-04 14:21 | 17.26639 | -9.95561 | 40807 ft | 500 kts | 165° |
| 2026-05-04 14:21 | 17.20231 | -9.92745 | 40810 ft | 500 kts | 165° |
| 2026-05-04 14:22 | 17.13815 | -9.89927 | 40806 ft | 500 kts | 165° |
| 2026-05-04 14:22 | 17.07406 | -9.87112 | 40814 ft | 499 kts | 165° |
| 2026-05-04 14:23 | 16.97797 | -9.82913 | 40810 ft | 499 kts | 165° |
| 2026-05-04 14:24 | 16.91386 | -9.80118 | 40809 ft | 499 kts | 165° |
| 2026-05-04 14:24 | 16.84974 | -9.77315 | 40810 ft | 500 kts | 165° |
| 2026-05-04 14:25 | 16.78561 | -9.74506 | 40804 ft | 500 kts | 165° |
| 2026-05-04 14:25 | 16.68951 | -9.70296 | 40809 ft | 499 kts | 165° |
| 2026-05-04 14:26 | 16.62539 | -9.67494 | 40799 ft | 499 kts | 165° |
| 2026-05-04 14:26 | 16.56130 | -9.64697 | 40800 ft | 499 kts | 165° |
| 2026-05-04 14:27 | 16.49722 | -9.61889 | 40803 ft | 500 kts | 164° |
| 2026-05-04 14:27 | 16.45378 | -9.59979 | 40799 ft | 500 kts | 163° |
| 2026-05-04 14:28 | 16.38936 | -9.57161 | 40803 ft | 503 kts | 164° |
| 2026-05-04 14:28 | 16.32476 | -9.54345 | 40802 ft | 503 kts | 164° |
| 2026-05-04 14:29 | 16.19592 | -9.48751 | 40804 ft | 503 kts | 164° |
| 2026-05-04 14:30 | 16.13131 | -9.45954 | 40800 ft | 503 kts | 164° |
| 2026-05-04 14:31 | 16.04658 | -9.42287 | 40814 ft | 501 kts | 164° |
| 2026-05-04 14:32 | 15.91785 | -9.36697 | 40812 ft | 501 kts | 164° |
| 2026-05-04 14:32 | 15.85352 | -9.33906 | 40815 ft | 501 kts | 164° |
| 2026-05-04 14:33 | 15.78915 | -9.31118 | 40800 ft | 501 kts | 163° |
| 2026-05-04 14:33 | 15.72475 | -9.28332 | 40825 ft | 501 kts | 163° |
| 2026-05-04 14:34 | 15.66037 | -9.25549 | 40823 ft | 501 kts | 163° |
| 2026-05-04 14:34 | 15.59601 | -9.22768 | 40820 ft | 501 kts | 163° |
| 2026-05-04 14:35 | 15.53162 | -9.19988 | 40826 ft | 501 kts | 163° |
| 2026-05-04 14:35 | 15.46722 | -9.17209 | 40826 ft | 501 kts | 163° |
| 2026-05-04 14:36 | 15.40281 | -9.14432 | 40829 ft | 502 kts | 163° |
| 2026-05-04 14:36 | 15.33835 | -9.11655 | 40829 ft | 502 kts | 163° |
| 2026-05-04 14:37 | 15.27380 | -9.08875 | 40830 ft | 502 kts | 163° |
| 2026-05-04 14:37 | 15.20928 | -9.06099 | 40828 ft | 502 kts | 163° |
| 2026-05-04 14:38 | 15.14474 | -9.03323 | 40835 ft | 502 kts | 163° |
| 2026-05-04 14:38 | 15.08019 | -9.00549 | 40831 ft | 502 kts | 163° |
| 2026-05-04 14:39 | 15.02672 | -8.98251 | 40834 ft | 500 kts | 163° |
| 2026-05-04 14:39 | 14.96261 | -8.95499 | 40834 ft | 499 kts | 163° |
| 2026-05-04 14:40 | 14.86639 | -8.91374 | 40837 ft | 499 kts | 163° |
| 2026-05-04 14:40 | 14.80222 | -8.88624 | 40837 ft | 499 kts | 163° |
| 2026-05-04 14:41 | 14.73807 | -8.85877 | 40833 ft | 499 kts | 162° |
| 2026-05-04 14:42 | 14.60984 | -8.80389 | 40843 ft | 499 kts | 162° |
| 2026-05-04 14:42 | 14.54569 | -8.77645 | 40840 ft | 499 kts | 162° |
| 2026-05-04 14:43 | 14.48156 | -8.74904 | 40848 ft | 499 kts | 162° |
| 2026-05-04 14:43 | 14.41747 | -8.72167 | 40848 ft | 499 kts | 162° |
| 2026-05-04 14:44 | 14.35332 | -8.69429 | 40848 ft | 498 kts | 162° |
| 2026-05-04 14:44 | 14.28933 | -8.66698 | 40851 ft | 498 kts | 162° |
| 2026-05-04 14:45 | 14.22572 | -8.63988 | 40851 ft | 498 kts | 162° |
| 2026-05-04 14:45 | 14.16169 | -8.61266 | 40856 ft | 498 kts | 162° |
| 2026-05-04 14:46 | 14.09765 | -8.58541 | 40856 ft | 498 kts | 162° |
| 2026-05-04 14:46 | 14.03364 | -8.55811 | 40863 ft | 498 kts | 162° |
| 2026-05-04 14:47 | 13.96968 | -8.53088 | 40864 ft | 497 kts | 162° |
| 2026-05-04 14:47 | 13.90574 | -8.50370 | 40872 ft | 497 kts | 162° |
| 2026-05-04 14:48 | 13.84178 | -8.47653 | 40873 ft | 497 kts | 162° |
| 2026-05-04 14:48 | 13.77783 | -8.44941 | 40884 ft | 497 kts | 162° |
| 2026-05-04 14:49 | 13.71383 | -8.42227 | 40883 ft | 497 kts | 162° |
| 2026-05-04 14:49 | 13.64983 | -8.39518 | 40884 ft | 498 kts | 162° |
| 2026-05-04 14:50 | 13.58579 | -8.36804 | 40891 ft | 498 kts | 162° |
| 2026-05-04 14:50 | 13.52173 | -8.34087 | 40893 ft | 498 kts | 162° |
| 2026-05-04 14:51 | 13.45765 | -8.31376 | 40895 ft | 498 kts | 162° |
| 2026-05-04 14:51 | 13.39363 | -8.28665 | 40894 ft | 498 kts | 162° |
| 2026-05-04 14:52 | 13.32962 | -8.25957 | 40900 ft | 498 kts | 162° |
| 2026-05-04 14:52 | 13.26558 | -8.23250 | 40900 ft | 498 kts | 162° |
| 2026-05-04 14:53 | 13.20155 | -8.20546 | 40908 ft | 498 kts | 162° |
| 2026-05-04 14:53 | 13.13752 | -8.17844 | 40907 ft | 498 kts | 162° |
| 2026-05-04 14:54 | 13.07346 | -8.15142 | 40917 ft | 498 kts | 162° |
| 2026-05-04 14:54 | 13.00942 | -8.12442 | 40916 ft | 498 kts | 162° |
| 2026-05-04 14:55 | 12.94533 | -8.09742 | 40916 ft | 498 kts | 161° |
| 2026-05-04 14:55 | 12.88165 | -8.07061 | 40921 ft | 498 kts | 162° |
| 2026-05-04 14:56 | 12.81749 | -8.04363 | 40921 ft | 498 kts | 162° |
| 2026-05-04 14:56 | 12.75335 | -8.01667 | 40928 ft | 498 kts | 162° |
| 2026-05-04 14:57 | 12.68922 | -7.98969 | 40925 ft | 498 kts | 161° |
| 2026-05-04 14:57 | 12.62507 | -7.96271 | 40910 ft | 499 kts | 161° |
| 2026-05-04 14:58 | 12.56092 | -7.93552 | 40907 ft | 500 kts | 159° |
| 2026-05-04 14:58 | 12.49945 | -7.90141 | 40910 ft | 504 kts | 153° |
| 2026-05-04 14:59 | 12.43898 | -7.86504 | 40914 ft | 504 kts | 153° |
| 2026-05-04 15:00 | 12.34861 | -7.81000 | 40915 ft | 504 kts | 153° |
| 2026-05-04 15:00 | 12.28827 | -7.77343 | 40914 ft | 504 kts | 153° |
| 2026-05-04 15:01 | 12.19775 | -7.71874 | 40924 ft | 504 kts | 153° |
| 2026-05-04 15:01 | 12.13742 | -7.68232 | 40911 ft | 503 kts | 153° |
| 2026-05-04 15:02 | 12.07708 | -7.64591 | 40927 ft | 503 kts | 153° |
| 2026-05-04 15:02 | 12.01678 | -7.60955 | 40912 ft | 503 kts | 153° |
| 2026-05-04 15:03 | 11.95639 | -7.57326 | 40911 ft | 503 kts | 153° |
| 2026-05-04 15:03 | 11.89608 | -7.53693 | 40899 ft | 503 kts | 153° |
| 2026-05-04 15:04 | 11.83582 | -7.50072 | 40894 ft | 502 kts | 153° |
| 2026-05-04 15:04 | 11.77599 | -7.46474 | 40902 ft | 502 kts | 152° |
| 2026-05-04 15:05 | 11.71578 | -7.42850 | 40897 ft | 502 kts | 152° |
| 2026-05-04 15:05 | 11.65557 | -7.39226 | 40901 ft | 503 kts | 152° |
| 2026-05-04 15:06 | 11.59531 | -7.35610 | 40898 ft | 502 kts | 153° |
| 2026-05-04 15:07 | 11.50491 | -7.30177 | 40903 ft | 503 kts | 152° |
| 2026-05-04 15:07 | 11.44468 | -7.26547 | 40900 ft | 503 kts | 152° |
| 2026-05-04 15:08 | 11.38887 | -7.23194 | 40886 ft | 503 kts | 152° |
| 2026-05-04 15:08 | 11.32853 | -7.19588 | 40892 ft | 503 kts | 152° |
| 2026-05-04 15:09 | 11.26821 | -7.15984 | 40892 ft | 502 kts | 152° |
| 2026-05-04 15:09 | 11.20798 | -7.12381 | 40881 ft | 502 kts | 152° |
| 2026-05-04 15:10 | 11.11795 | -7.06972 | 40882 ft | 503 kts | 152° |
| 2026-05-04 15:11 | 11.02746 | -7.01548 | 40883 ft | 503 kts | 152° |
| 2026-05-04 15:11 | 10.96710 | -6.97939 | 40878 ft | 503 kts | 152° |
| 2026-05-04 15:12 | 10.90632 | -6.94308 | 40882 ft | 503 kts | 152° |
| 2026-05-04 15:12 | 10.84636 | -6.90726 | 40879 ft | 503 kts | 152° |
| 2026-05-04 15:13 | 10.78599 | -6.87124 | 40875 ft | 503 kts | 152° |
| 2026-05-04 15:13 | 10.72558 | -6.83532 | 40864 ft | 503 kts | 152° |
| 2026-05-04 15:14 | 10.66516 | -6.79931 | 40873 ft | 503 kts | 152° |
| 2026-05-04 15:14 | 10.60476 | -6.76323 | 40870 ft | 504 kts | 152° |
| 2026-05-04 15:15 | 10.54436 | -6.72716 | 40865 ft | 504 kts | 152° |
| 2026-05-04 15:15 | 10.48397 | -6.69110 | 40857 ft | 504 kts | 152° |
| 2026-05-04 15:16 | 10.39323 | -6.63702 | 40856 ft | 504 kts | 152° |
| 2026-05-04 15:17 | 10.30245 | -6.58297 | 40858 ft | 504 kts | 152° |
| 2026-05-04 15:17 | 10.21172 | -6.52896 | 40857 ft | 504 kts | 152° |
| 2026-05-04 15:18 | 10.15121 | -6.49298 | 40856 ft | 504 kts | 152° |
| 2026-05-04 15:19 | 10.06044 | -6.43902 | 40853 ft | 505 kts | 151° |
| 2026-05-04 15:19 | 9.96946 | -6.38498 | 40853 ft | 505 kts | 151° |
| 2026-05-04 15:20 | 9.90874 | -6.34895 | 40853 ft | 505 kts | 151° |
| 2026-05-04 15:20 | 9.84847 | -6.31319 | 40856 ft | 505 kts | 151° |
| 2026-05-04 15:21 | 9.78781 | -6.27721 | 40850 ft | 505 kts | 151° |
| 2026-05-04 15:22 | 9.69646 | -6.22305 | 40854 ft | 505 kts | 151° |
| 2026-05-04 15:22 | 9.60549 | -6.16914 | 40856 ft | 505 kts | 151° |
| 2026-05-04 15:23 | 9.54528 | -6.13345 | 40846 ft | 505 kts | 151° |
| 2026-05-04 15:23 | 9.48429 | -6.09736 | 40856 ft | 505 kts | 151° |
| 2026-05-04 15:24 | 9.36328 | -6.02577 | 40851 ft | 506 kts | 151° |
| 2026-05-04 15:25 | 9.30244 | -5.98978 | 40856 ft | 506 kts | 151° |
| 2026-05-04 15:26 | 9.21120 | -5.93586 | 40854 ft | 506 kts | 151° |
| 2026-05-04 15:26 | 9.11995 | -5.88197 | 40854 ft | 506 kts | 151° |
| 2026-05-04 15:27 | 9.03894 | -5.83416 | 40850 ft | 506 kts | 151° |
| 2026-05-04 15:28 | 8.94780 | -5.78039 | 40856 ft | 505 kts | 151° |
| 2026-05-04 15:29 | 8.85670 | -5.72669 | 40856 ft | 505 kts | 151° |
| 2026-05-04 15:30 | 8.64397 | -5.60137 | 40856 ft | 505 kts | 151° |
| 2026-05-04 15:31 | 8.55324 | -5.54780 | 40856 ft | 503 kts | 151° |
| 2026-05-04 15:32 | 8.40250 | -5.45936 | 40853 ft | 503 kts | 151° |
| 2026-05-04 15:34 | 8.25139 | -5.37059 | 40861 ft | 502 kts | 151° |
| 2026-05-04 15:34 | 8.16082 | -5.31742 | 40858 ft | 502 kts | 151° |
| 2026-05-04 15:35 | 8.06998 | -5.26412 | 40859 ft | 504 kts | 151° |
| 2026-05-04 15:36 | 7.97903 | -5.21079 | 40868 ft | 504 kts | 151° |
| 2026-05-04 15:36 | 7.91838 | -5.17524 | 40863 ft | 504 kts | 151° |
| 2026-05-04 15:37 | 7.85796 | -5.13983 | 40866 ft | 502 kts | 151° |
| 2026-05-04 15:37 | 7.79762 | -5.10448 | 40862 ft | 501 kts | 151° |
| 2026-05-04 15:38 | 7.73667 | -5.07052 | 40867 ft | 500 kts | 155° |
| 2026-05-04 15:38 | 7.67388 | -5.04023 | 40861 ft | 500 kts | 156° |
| 2026-05-04 15:39 | 7.61083 | -5.01061 | 40862 ft | 500 kts | 156° |
| 2026-05-04 15:40 | 7.52059 | -4.96835 | 40853 ft | 499 kts | 156° |
| 2026-05-04 15:40 | 7.45817 | -4.93903 | 40858 ft | 498 kts | 156° |
| 2026-05-04 15:41 | 7.39525 | -4.90947 | 40854 ft | 499 kts | 156° |
| 2026-05-04 15:41 | 7.33232 | -4.87990 | 40851 ft | 499 kts | 156° |
| 2026-05-04 15:41 | 7.30082 | -4.86511 | 40705 ft | 499 kts | 156° |
| 2026-05-04 15:42 | 7.26938 | -4.85034 | 40471 ft | 499 kts | 156° |
| 2026-05-04 15:42 | 7.23787 | -4.83555 | 40227 ft | 500 kts | 156° |
| 2026-05-04 15:42 | 7.20625 | -4.82071 | 39987 ft | 501 kts | 156° |
| 2026-05-04 15:42 | 7.17459 | -4.80586 | 39747 ft | 502 kts | 156° |
| 2026-05-04 15:43 | 7.14288 | -4.79097 | 39519 ft | 503 kts | 156° |
| 2026-05-04 15:43 | 7.11113 | -4.77608 | 39278 ft | 504 kts | 156° |
| 2026-05-04 15:43 | 7.07927 | -4.76114 | 39040 ft | 505 kts | 156° |
| 2026-05-04 15:43 | 7.04734 | -4.74616 | 38840 ft | 506 kts | 156° |
| 2026-05-04 15:44 | 7.01545 | -4.73120 | 38456 ft | 504 kts | 156° |
| 2026-05-04 15:44 | 6.98372 | -4.71632 | 37783 ft | 503 kts | 156° |
| 2026-05-04 15:44 | 6.95203 | -4.70146 | 37093 ft | 502 kts | 156° |
| 2026-05-04 15:44 | 6.92035 | -4.68661 | 36397 ft | 502 kts | 156° |
| 2026-05-04 15:45 | 6.88871 | -4.67178 | 35689 ft | 502 kts | 156° |
| 2026-05-04 15:45 | 6.85699 | -4.65692 | 34929 ft | 504 kts | 156° |
| 2026-05-04 15:45 | 6.82513 | -4.64200 | 34107 ft | 507 kts | 156° |
| 2026-05-04 15:45 | 6.79301 | -4.62695 | 33190 ft | 511 kts | 156° |
| 2026-05-04 15:46 | 6.76070 | -4.61182 | 32284 ft | 513 kts | 155° |
| 2026-05-04 15:46 | 6.72830 | -4.59659 | 31386 ft | 515 kts | 155° |
| 2026-05-04 15:46 | 6.69577 | -4.58129 | 30525 ft | 516 kts | 155° |
| 2026-05-04 15:46 | 6.66342 | -4.56612 | 29532 ft | 513 kts | 156° |
| 2026-05-04 15:47 | 6.63115 | -4.55103 | 28646 ft | 511 kts | 156° |
| 2026-05-04 15:47 | 6.59907 | -4.53604 | 27916 ft | 505 kts | 155° |
| 2026-05-04 15:47 | 6.56740 | -4.52121 | 27232 ft | 500 kts | 155° |
| 2026-05-04 15:47 | 6.53605 | -4.50655 | 26547 ft | 495 kts | 155° |
| 2026-05-04 15:48 | 6.50497 | -4.49200 | 25853 ft | 490 kts | 155° |
| 2026-05-04 15:48 | 6.47461 | -4.47779 | 25142 ft | 487 kts | 154° |
| 2026-05-04 15:48 | 6.41356 | -4.44905 | 23715 ft | 481 kts | 154° |
| 2026-05-04 15:49 | 6.38297 | -4.43463 | 22952 ft | 478 kts | 154° |
| 2026-05-04 15:49 | 6.35343 | -4.42070 | 22245 ft | 472 kts | 153° |
| 2026-05-04 15:49 | 6.32387 | -4.40678 | 21562 ft | 466 kts | 153° |
| 2026-05-04 15:49 | 6.29469 | -4.39303 | 20883 ft | 459 kts | 153° |
| 2026-05-04 15:50 | 6.26617 | -4.37960 | 20207 ft | 435 kts | 153° |
| 2026-05-04 15:50 | 6.23970 | -4.36716 | 19573 ft | 417 kts | 152° |
| 2026-05-04 15:50 | 6.21346 | -4.35479 | 18943 ft | 416 kts | 152° |
| 2026-05-04 15:50 | 6.18729 | -4.34244 | 18294 ft | 414 kts | 152° |
| 2026-05-04 15:51 | 6.16126 | -4.33016 | 17570 ft | 412 kts | 151° |
| 2026-05-04 15:51 | 6.13540 | -4.31797 | 16891 ft | 409 kts | 151° |
| 2026-05-04 15:51 | 6.10978 | -4.30590 | 16229 ft | 405 kts | 151° |
| 2026-05-04 15:51 | 6.08441 | -4.29396 | 15566 ft | 401 kts | 151° |
| 2026-05-04 15:52 | 6.05928 | -4.28212 | 14910 ft | 397 kts | 151° |
| 2026-05-04 15:52 | 6.03435 | -4.27039 | 14244 ft | 394 kts | 151° |
| 2026-05-04 15:52 | 6.00960 | -4.25873 | 13566 ft | 391 kts | 151° |
| 2026-05-04 15:52 | 5.98507 | -4.24718 | 12839 ft | 387 kts | 151° |
| 2026-05-04 15:53 | 5.96081 | -4.23577 | 12169 ft | 383 kts | 151° |
| 2026-05-04 15:53 | 5.93685 | -4.22450 | 11525 ft | 378 kts | 150° |
| 2026-05-04 15:53 | 5.91325 | -4.21340 | 11074 ft | 368 kts | 150° |
| 2026-05-04 15:53 | 5.89061 | -4.20279 | 10961 ft | 350 kts | 150° |
| 2026-05-04 15:54 | 5.86913 | -4.19272 | 10818 ft | 332 kts | 150° |
| 2026-05-04 15:54 | 5.84869 | -4.18312 | 10709 ft | 316 kts | 150° |
| 2026-05-04 15:54 | 5.82926 | -4.17399 | 10583 ft | 301 kts | 149° |
| 2026-05-04 15:54 | 5.81068 | -4.16525 | 10444 ft | 288 kts | 149° |
| 2026-05-04 15:55 | 5.79293 | -4.15692 | 10335 ft | 275 kts | 149° |
| 2026-05-04 15:55 | 5.77594 | -4.14896 | 10164 ft | 266 kts | 149° |
| 2026-05-04 15:55 | 5.75932 | -4.14114 | 9857 ft | 262 kts | 149° |
| 2026-05-04 15:55 | 5.74259 | -4.13323 | 9583 ft | 273 kts | 149° |
| 2026-05-04 15:56 | 5.72512 | -4.12494 | 9441 ft | 280 kts | 149° |
| 2026-05-04 15:56 | 5.70754 | -4.11668 | 9021 ft | 279 kts | 150° |
| 2026-05-04 15:56 | 5.68993 | -4.10841 | 8560 ft | 280 kts | 150° |
| 2026-05-04 15:56 | 5.67234 | -4.10015 | 8170 ft | 278 kts | 150° |
| 2026-05-04 15:57 | 5.65490 | -4.09187 | 7853 ft | 276 kts | 149° |
| 2026-05-04 15:57 | 5.63928 | -4.08119 | 7476 ft | 269 kts | 132° |
| 2026-05-04 15:57 | 5.62709 | -4.06723 | 7166 ft | 265 kts | 126° |
| 2026-05-04 15:57 | 5.61567 | -4.05265 | 6892 ft | 266 kts | 125° |
| 2026-05-04 15:58 | 5.60429 | -4.03804 | 6578 ft | 265 kts | 125° |
| 2026-05-04 15:58 | 5.59290 | -4.02349 | 6250 ft | 265 kts | 126° |
| 2026-05-04 15:58 | 5.58148 | -4.00898 | 5925 ft | 265 kts | 126° |
| 2026-05-04 15:58 | 5.57002 | -3.99451 | 5600 ft | 264 kts | 127° |
| 2026-05-04 15:59 | 5.55873 | -3.98028 | 5285 ft | 264 kts | 127° |
| 2026-05-04 15:59 | 5.54713 | -3.96565 | 4976 ft | 264 kts | 127° |
| 2026-05-04 15:59 | 5.53591 | -3.95144 | 4653 ft | 264 kts | 127° |
| 2026-05-04 15:59 | 5.52451 | -3.93701 | 4328 ft | 264 kts | 127° |
| 2026-05-04 16:00 | 5.51313 | -3.92264 | 4007 ft | 262 kts | 127° |
| 2026-05-04 16:00 | 5.50187 | -3.90836 | 3684 ft | 260 kts | 127° |
| 2026-05-04 16:00 | 5.49081 | -3.89434 | 3463 ft | 251 kts | 127° |
| 2026-05-04 16:00 | 5.48021 | -3.88092 | 3303 ft | 239 kts | 127° |
| 2026-05-04 16:01 | 5.47010 | -3.86813 | 3182 ft | 229 kts | 127° |
| 2026-05-04 16:01 | 5.45894 | -3.85735 | 3060 ft | 221 kts | 150° |
| 2026-05-04 16:01 | 5.44426 | -3.85426 | 2993 ft | 213 kts | 175° |
| 2026-05-04 16:01 | 5.42988 | -3.85591 | 2911 ft | 205 kts | 193° |
| 2026-05-04 16:02 | 5.41713 | -3.86117 | 2806 ft | 191 kts | 202° |
| 2026-05-04 16:02 | 5.40533 | -3.86633 | 2679 ft | 179 kts | 198° |
| 2026-05-04 16:02 | 5.38307 | -3.87537 | 2240 ft | 167 kts | 200° |
| 2026-05-04 16:03 | 5.37256 | -3.87957 | 1970 ft | 158 kts | 199° |
| 2026-05-04 16:03 | 5.36260 | -3.88361 | 1785 ft | 151 kts | 201° |
| 2026-05-04 16:03 | 5.35317 | -3.88771 | 1596 ft | 145 kts | 199° |
| 2026-05-04 16:03 | 5.34399 | -3.89143 | 1392 ft | 140 kts | 199° |
| 2026-05-04 16:04 | 5.33516 | -3.89530 | 1216 ft | 135 kts | 200° |
| 2026-05-04 16:04 | 5.31814 | -3.90255 | 811 ft | 131 kts | 199° |
| 2026-05-04 16:04 | 5.30963 | -3.90590 | 685 ft | 131 kts | 198° |
| 2026-05-04 16:05 | 5.30112 | -3.90945 | 573 ft | 132 kts | 199° |
| 2026-05-04 16:05 | 5.29267 | -3.91297 | 388 ft | 131 kts | 198° |
| 2026-05-04 16:05 | 5.27594 | -3.91981 | 95 ft | 129 kts | 200° |
| 2026-05-04 16:06 | 5.26792 | -3.92311 | 30 ft | 112 kts | 203° |
| 2026-05-04 16:06 | 5.25623 | -3.92794 | 31 ft | 24 kts | 202° |
| 2026-05-04 16:07 | 5.25484 | -3.92863 | 31 ft | 15 kts | 228° |
| 2026-05-04 16:07 | 5.25459 | -3.93044 | 28 ft | 10 kts | 209° |
| 2026-05-04 16:08 | 5.25396 | -3.93073 | 29 ft | 9 kts | 204° |
| 2026-05-04 16:08 | 5.25384 | -3.93174 | 31 ft | 4 kts | 292° |
| 2026-05-04 16:09 | 5.25387 | -3.93181 | 31 ft | 0 kts | 293° |